aviador You're here:

UMMS Decoded Metar

MINSK 2 in BELARUS
Report Time2017-11-23 22:00:00
UTC Time2017-11-23 22:11:05
Flight Rules vfr VFR
Wind150° at 6 kt
W.Decomp.*RWY 13: 5.9 kt HW 1.2 kt RCW
W.Rank150° ranks 11
Current wind is below 150° avg. (6.3)
Visibility9999 m
Phenomena:N/A
Clouds:N/A
Expected CloudBase > 800 ft AGL from Temp-Dew spread
CeilingNone
Temp-1°C (ISA -15)
Dew Point-3°C (86% RH)
AAT-5.5°C
QNH1019 hPa
Density Alt-1,257 ft
Elevation673 ft
Report Wrong Elevation
Raw Report
METAR UMMS 232200Z 15003MPS CAVOK M01/M03 Q1019 R13/D NOSIG=

Extra information for UMMS:More info

Metar Taf Metar & Taf Last 4 Metars F.Rules Stats Wind Profile Meteogram Temp Stats Airport Information Weather charts Add Link Nearby VenuesMetar ALERT Operation Metar Decoded Social comments